sensor_id;sensor_type;location;lat;lon;timestamp;P1;durP1;ratioP1;P2;durP2;ratioP2
29812;SDS011;16707;48.106;11.548;2023-04-03T00:01:01;11.02;;;7.35;;
29812;SDS011;16707;48.106;11.548;2023-04-03T00:03:36;11.93;;;7.70;;
29812;SDS011;16707;48.106;11.548;2023-04-03T00:06:10;9.10;;;6.95;;
29812;SDS011;16707;48.106;11.548;2023-04-03T00:08:41;11.50;;;7.30;;
29812;SDS011;16707;48.106;11.548;2023-04-03T00:11:08;10.00;;;8.30;;
29812;SDS011;16707;48.106;11.548;2023-04-03T00:13:39;13.27;;;8.05;;
29812;SDS011;16707;48.106;11.548;2023-04-03T00:16:06;10.80;;;7.28;;
29812;SDS011;16707;48.106;11.548;2023-04-03T00:18:34;14.25;;;8.88;;
29812;SDS011;16707;48.106;11.548;2023-04-03T00:21:05;11.52;;;7.90;;
29812;SDS011;16707;48.106;11.548;2023-04-03T00:23:33;10.40;;;7.72;;
29812;SDS011;16707;48.106;11.548;2023-04-03T00:26:02;11.40;;;7.45;;
29812;SDS011;16707;48.106;11.548;2023-04-03T00:28:29;11.75;;;7.38;;
29812;SDS011;16707;48.106;11.548;2023-04-03T00:30:56;10.63;;;7.13;;
29812;SDS011;16707;48.106;11.548;2023-04-03T00:33:23;9.32;;;6.50;;
29812;SDS011;16707;48.106;11.548;2023-04-03T00:35:52;11.40;;;7.50;;
29812;SDS011;16707;48.106;11.548;2023-04-03T00:38:19;9.27;;;7.28;;
29812;SDS011;16707;48.106;11.548;2023-04-03T00:40:47;11.50;;;7.68;;
29812;SDS011;16707;48.106;11.548;2023-04-03T00:43:19;11.50;;;7.32;;
29812;SDS011;16707;48.106;11.548;2023-04-03T00:45:49;10.48;;;6.82;;
29812;SDS011;16707;48.106;11.548;2023-04-03T00:48:24;10.13;;;6.93;;
29812;SDS011;16707;48.106;11.548;2023-04-03T00:50:54;10.70;;;6.93;;
29812;SDS011;16707;48.106;11.548;2023-04-03T00:53:22;12.95;;;7.28;;
29812;SDS011;16707;48.106;11.548;2023-04-03T00:55:51;13.77;;;7.82;;
29812;SDS011;16707;48.106;11.548;2023-04-03T00:58:24;10.70;;;7.75;;
29812;SDS011;16707;48.106;11.548;2023-04-03T01:01:00;11.30;;;7.30;;
29812;SDS011;16707;48.106;11.548;2023-04-03T01:03:33;11.77;;;7.03;;
29812;SDS011;16707;48.106;11.548;2023-04-03T01:06:00;10.95;;;6.88;;
29812;SDS011;16707;48.106;11.548;2023-04-03T01:08:27;9.77;;;7.05;;
29812;SDS011;16707;48.106;11.548;2023-04-03T01:10:54;9.50;;;6.28;;
29812;SDS011;16707;48.106;11.548;2023-04-03T01:13:25;10.15;;;6.63;;
29812;SDS011;16707;48.106;11.548;2023-04-03T01:16:02;12.18;;;7.40;;
29812;SDS011;16707;48.106;11.548;2023-04-03T01:18:37;10.02;;;6.40;;
29812;SDS011;16707;48.106;11.548;2023-04-03T01:24:21;9.23;;;6.85;;
29812;SDS011;16707;48.106;11.548;2023-04-03T01:26:58;9.98;;;6.78;;
29812;SDS011;16707;48.106;11.548;2023-04-03T01:29:28;10.50;;;6.05;;
29812;SDS011;16707;48.106;11.548;2023-04-03T01:32:02;9.48;;;5.85;;
29812;SDS011;16707;48.106;11.548;2023-04-03T01:34:38;11.30;;;6.35;;
29812;SDS011;16707;48.106;11.548;2023-04-03T01:37:05;9.98;;;6.10;;
29812;SDS011;16707;48.106;11.548;2023-04-03T01:39:33;8.52;;;6.05;;
29812;SDS011;16707;48.106;11.548;2023-04-03T01:41:59;9.63;;;6.20;;
29812;SDS011;16707;48.106;11.548;2023-04-03T01:44:26;8.68;;;5.57;;
29812;SDS011;16707;48.106;11.548;2023-04-03T01:46:53;9.20;;;6.05;;
29812;SDS011;16707;48.106;11.548;2023-04-03T01:49:21;8.98;;;6.35;;
29812;SDS011;16707;48.106;11.548;2023-04-03T01:51:48;10.20;;;6.10;;
29812;SDS011;16707;48.106;11.548;2023-04-03T01:54:17;8.52;;;5.70;;
29812;SDS011;16707;48.106;11.548;2023-04-03T01:56:46;12.45;;;6.85;;
29812;SDS011;16707;48.106;11.548;2023-04-03T01:59:13;9.40;;;6.00;;
29812;SDS011;16707;48.106;11.548;2023-04-03T02:01:42;9.82;;;6.60;;
29812;SDS011;16707;48.106;11.548;2023-04-03T02:04:12;10.48;;;6.63;;
29812;SDS011;16707;48.106;11.548;2023-04-03T02:06:43;9.85;;;6.35;;
29812;SDS011;16707;48.106;11.548;2023-04-03T02:09:10;9.45;;;5.97;;
29812;SDS011;16707;48.106;11.548;2023-04-03T02:11:37;9.77;;;6.22;;
29812;SDS011;16707;48.106;11.548;2023-04-03T02:14:06;9.68;;;6.10;;
29812;SDS011;16707;48.106;11.548;2023-04-03T02:16:33;9.73;;;6.10;;
29812;SDS011;16707;48.106;11.548;2023-04-03T02:19:03;9.57;;;6.40;;
29812;SDS011;16707;48.106;11.548;2023-04-03T02:21:33;9.35;;;6.32;;
29812;SDS011;16707;48.106;11.548;2023-04-03T02:24:01;10.07;;;6.07;;
29812;SDS011;16707;48.106;11.548;2023-04-03T02:26:31;10.35;;;5.80;;
29812;SDS011;16707;48.106;11.548;2023-04-03T02:28:59;8.52;;;5.65;;
29812;SDS011;16707;48.106;11.548;2023-04-03T02:31:28;7.55;;;5.78;;
29812;SDS011;16707;48.106;11.548;2023-04-03T02:33:55;10.40;;;5.80;;
29812;SDS011;16707;48.106;11.548;2023-04-03T02:36:25;8.25;;;5.97;;
29812;SDS011;16707;48.106;11.548;2023-04-03T02:38:52;7.65;;;5.85;;
29812;SDS011;16707;48.106;11.548;2023-04-03T02:41:28;7.45;;;6.13;;
29812;SDS011;16707;48.106;11.548;2023-04-03T02:44:00;8.85;;;5.75;;
29812;SDS011;16707;48.106;11.548;2023-04-03T02:46:34;8.07;;;6.60;;
29812;SDS011;16707;48.106;11.548;2023-04-03T02:49:01;9.98;;;5.32;;
29812;SDS011;16707;48.106;11.548;2023-04-03T02:51:29;7.43;;;4.80;;
29812;SDS011;16707;48.106;11.548;2023-04-03T02:54:03;8.75;;;5.18;;
29812;SDS011;16707;48.106;11.548;2023-04-03T02:56:38;8.05;;;5.00;;
29812;SDS011;16707;48.106;11.548;2023-04-03T02:59:05;7.90;;;5.20;;
29812;SDS011;16707;48.106;11.548;2023-04-03T03:01:32;7.97;;;5.25;;
29812;SDS011;16707;48.106;11.548;2023-04-03T03:04:00;8.02;;;5.20;;
29812;SDS011;16707;48.106;11.548;2023-04-03T03:06:27;6.65;;;4.97;;
29812;SDS011;16707;48.106;11.548;2023-04-03T03:09:04;5.90;;;4.78;;
29812;SDS011;16707;48.106;11.548;2023-04-03T03:11:33;6.45;;;4.82;;
29812;SDS011;16707;48.106;11.548;2023-04-03T03:14:00;6.85;;;4.43;;
29812;SDS011;16707;48.106;11.548;2023-04-03T03:16:27;7.20;;;4.70;;
29812;SDS011;16707;48.106;11.548;2023-04-03T03:18:57;7.88;;;4.30;;
29812;SDS011;16707;48.106;11.548;2023-04-03T03:21:24;6.43;;;4.88;;
29812;SDS011;16707;48.106;11.548;2023-04-03T03:23:54;7.55;;;4.47;;
29812;SDS011;16707;48.106;11.548;2023-04-03T03:26:28;6.40;;;4.53;;
29812;SDS011;16707;48.106;11.548;2023-04-03T03:28:58;6.85;;;4.88;;
29812;SDS011;16707;48.106;11.548;2023-04-03T03:31:25;6.30;;;4.45;;
29812;SDS011;16707;48.106;11.548;2023-04-03T03:33:55;6.57;;;4.30;;
29812;SDS011;16707;48.106;11.548;2023-04-03T03:36:25;4.80;;;3.58;;
29812;SDS011;16707;48.106;11.548;2023-04-03T03:38:58;4.82;;;3.58;;
29812;SDS011;16707;48.106;11.548;2023-04-03T03:41:24;4.97;;;3.60;;
29812;SDS011;16707;48.106;11.548;2023-04-03T03:44:02;5.45;;;4.18;;
29812;SDS011;16707;48.106;11.548;2023-04-03T03:46:29;6.20;;;4.03;;
29812;SDS011;16707;48.106;11.548;2023-04-03T03:48:56;7.00;;;3.65;;
29812;SDS011;16707;48.106;11.548;2023-04-03T03:51:23;5.25;;;3.90;;
29812;SDS011;16707;48.106;11.548;2023-04-03T03:53:52;3.95;;;3.58;;
29812;SDS011;16707;48.106;11.548;2023-04-03T03:56:21;5.35;;;3.90;;
29812;SDS011;16707;48.106;11.548;2023-04-03T03:58:51;4.97;;;4.13;;
29812;SDS011;16707;48.106;11.548;2023-04-03T04:01:24;6.63;;;3.90;;
29812;SDS011;16707;48.106;11.548;2023-04-03T04:03:55;5.40;;;3.20;;
29812;SDS011;16707;48.106;11.548;2023-04-03T04:06:28;5.75;;;3.65;;
29812;SDS011;16707;48.106;11.548;2023-04-03T04:08:55;5.70;;;4.18;;
29812;SDS011;16707;48.106;11.548;2023-04-03T04:11:22;5.47;;;3.67;;
29812;SDS011;16707;48.106;11.548;2023-04-03T04:13:50;3.78;;;3.40;;
29812;SDS011;16707;48.106;11.548;2023-04-03T04:16:34;5.10;;;3.28;;
29812;SDS011;16707;48.106;11.548;2023-04-03T04:19:01;5.68;;;3.88;;
29812;SDS011;16707;48.106;11.548;2023-04-03T04:21:31;4.88;;;3.80;;
29812;SDS011;16707;48.106;11.548;2023-04-03T04:23:58;5.18;;;3.72;;
29812;SDS011;16707;48.106;11.548;2023-04-03T04:26:25;7.85;;;3.63;;
29812;SDS011;16707;48.106;11.548;2023-04-03T04:28:52;5.53;;;3.78;;
29812;SDS011;16707;48.106;11.548;2023-04-03T04:31:19;4.72;;;3.38;;
29812;SDS011;16707;48.106;11.548;2023-04-03T04:33:48;5.32;;;3.55;;
29812;SDS011;16707;48.106;11.548;2023-04-03T04:36:14;6.00;;;3.40;;
29812;SDS011;16707;48.106;11.548;2023-04-03T04:38:42;4.90;;;3.58;;
29812;SDS011;16707;48.106;11.548;2023-04-03T04:41:14;5.18;;;3.83;;
29812;SDS011;16707;48.106;11.548;2023-04-03T04:43:41;5.93;;;3.90;;
29812;SDS011;16707;48.106;11.548;2023-04-03T04:46:14;6.53;;;3.70;;
29812;SDS011;16707;48.106;11.548;2023-04-03T04:48:41;6.00;;;3.55;;
29812;SDS011;16707;48.106;11.548;2023-04-03T04:51:09;4.60;;;3.83;;
29812;SDS011;16707;48.106;11.548;2023-04-03T04:53:37;3.95;;;3.30;;
29812;SDS011;16707;48.106;11.548;2023-04-03T04:56:04;6.22;;;3.90;;
29812;SDS011;16707;48.106;11.548;2023-04-03T04:58:37;3.80;;;3.28;;
29812;SDS011;16707;48.106;11.548;2023-04-03T05:01:10;4.38;;;3.67;;
29812;SDS011;16707;48.106;11.548;2023-04-03T05:03:37;6.57;;;3.35;;
29812;SDS011;16707;48.106;11.548;2023-04-03T05:06:04;5.88;;;3.58;;
29812;SDS011;16707;48.106;11.548;2023-04-03T05:08:33;4.85;;;3.42;;
29812;SDS011;16707;48.106;11.548;2023-04-03T05:11:02;4.75;;;3.30;;
29812;SDS011;16707;48.106;11.548;2023-04-03T05:13:29;5.10;;;3.25;;
29812;SDS011;16707;48.106;11.548;2023-04-03T05:15:56;4.40;;;3.38;;
29812;SDS011;16707;48.106;11.548;2023-04-03T05:18:28;4.70;;;3.17;;
29812;SDS011;16707;48.106;11.548;2023-04-03T05:20:58;6.75;;;3.25;;
29812;SDS011;16707;48.106;11.548;2023-04-03T05:23:25;5.65;;;3.40;;
29812;SDS011;16707;48.106;11.548;2023-04-03T05:25:54;5.57;;;3.67;;
29812;SDS011;16707;48.106;11.548;2023-04-03T05:28:27;4.13;;;3.42;;
29812;SDS011;16707;48.106;11.548;2023-04-03T05:30:54;5.25;;;3.40;;
29812;SDS011;16707;48.106;11.548;2023-04-03T05:33:25;4.75;;;3.38;;
29812;SDS011;16707;48.106;11.548;2023-04-03T05:35:52;5.93;;;3.65;;
29812;SDS011;16707;48.106;11.548;2023-04-03T05:38:22;5.40;;;4.07;;
29812;SDS011;16707;48.106;11.548;2023-04-03T05:40:49;5.00;;;3.53;;
29812;SDS011;16707;48.106;11.548;2023-04-03T05:43:21;4.47;;;3.80;;
29812;SDS011;16707;48.106;11.548;2023-04-03T05:45:48;5.78;;;4.43;;
29812;SDS011;16707;48.106;11.548;2023-04-03T05:48:14;5.10;;;4.28;;
29812;SDS011;16707;48.106;11.548;2023-04-03T05:50:41;6.35;;;3.80;;
29812;SDS011;16707;48.106;11.548;2023-04-03T05:53:09;5.15;;;4.07;;
29812;SDS011;16707;48.106;11.548;2023-04-03T05:55:44;5.38;;;3.75;;
29812;SDS011;16707;48.106;11.548;2023-04-03T05:58:14;5.40;;;4.05;;
29812;SDS011;16707;48.106;11.548;2023-04-03T06:00:47;4.65;;;3.83;;
29812;SDS011;16707;48.106;11.548;2023-04-03T06:03:18;5.50;;;3.45;;
29812;SDS011;16707;48.106;11.548;2023-04-03T06:05:44;5.93;;;4.30;;
29812;SDS011;16707;48.106;11.548;2023-04-03T06:08:12;5.40;;;3.60;;
29812;SDS011;16707;48.106;11.548;2023-04-03T06:10:42;5.18;;;3.90;;
29812;SDS011;16707;48.106;11.548;2023-04-03T06:13:14;4.38;;;3.85;;
29812;SDS011;16707;48.106;11.548;2023-04-03T06:15:41;5.35;;;3.60;;
29812;SDS011;16707;48.106;11.548;2023-04-03T06:18:07;5.75;;;3.58;;
29812;SDS011;16707;48.106;11.548;2023-04-03T06:20:35;4.50;;;3.10;;
29812;SDS011;16707;48.106;11.548;2023-04-03T06:23:02;7.60;;;3.92;;
29812;SDS011;16707;48.106;11.548;2023-04-03T06:25:31;4.93;;;3.67;;
29812;SDS011;16707;48.106;11.548;2023-04-03T06:28:03;3.60;;;2.97;;
29812;SDS011;16707;48.106;11.548;2023-04-03T06:30:38;5.15;;;3.65;;
29812;SDS011;16707;48.106;11.548;2023-04-03T06:33:05;4.50;;;3.70;;
29812;SDS011;16707;48.106;11.548;2023-04-03T06:35:36;5.65;;;3.55;;
29812;SDS011;16707;48.106;11.548;2023-04-03T06:38:03;4.65;;;3.70;;
29812;SDS011;16707;48.106;11.548;2023-04-03T06:40:37;6.63;;;3.70;;
29812;SDS011;16707;48.106;11.548;2023-04-03T06:43:04;4.45;;;3.60;;
29812;SDS011;16707;48.106;11.548;2023-04-03T06:45:32;4.15;;;3.50;;
29812;SDS011;16707;48.106;11.548;2023-04-03T06:48:03;5.07;;;3.88;;
29812;SDS011;16707;48.106;11.548;2023-04-03T06:50:33;5.38;;;3.70;;
29812;SDS011;16707;48.106;11.548;2023-04-03T06:53:02;6.47;;;3.58;;
29812;SDS011;16707;48.106;11.548;2023-04-03T06:55:29;5.43;;;3.50;;
29812;SDS011;16707;48.106;11.548;2023-04-03T06:57:56;4.05;;;3.10;;
29812;SDS011;16707;48.106;11.548;2023-04-03T07:00:23;5.75;;;3.50;;
29812;SDS011;16707;48.106;11.548;2023-04-03T07:02:51;4.78;;;3.05;;
29812;SDS011;16707;48.106;11.548;2023-04-03T07:05:19;5.15;;;3.45;;
29812;SDS011;16707;48.106;11.548;2023-04-03T07:07:48;4.97;;;2.90;;
29812;SDS011;16707;48.106;11.548;2023-04-03T07:10:16;4.50;;;3.80;;
29812;SDS011;16707;48.106;11.548;2023-04-03T07:12:43;3.83;;;3.30;;
29812;SDS011;16707;48.106;11.548;2023-04-03T07:15:11;4.47;;;3.33;;
29812;SDS011;16707;48.106;11.548;2023-04-03T07:17:40;5.53;;;3.47;;
29812;SDS011;16707;48.106;11.548;2023-04-03T07:20:11;5.80;;;3.08;;
29812;SDS011;16707;48.106;11.548;2023-04-03T07:22:39;4.63;;;3.10;;
29812;SDS011;16707;48.106;11.548;2023-04-03T07:25:08;5.25;;;3.45;;
29812;SDS011;16707;48.106;11.548;2023-04-03T07:27:35;4.85;;;3.28;;
29812;SDS011;16707;48.106;11.548;2023-04-03T07:30:03;3.67;;;2.60;;
29812;SDS011;16707;48.106;11.548;2023-04-03T07:32:31;4.22;;;2.92;;
29812;SDS011;16707;48.106;11.548;2023-04-03T07:35:00;3.45;;;3.05;;
29812;SDS011;16707;48.106;11.548;2023-04-03T07:37:27;4.05;;;3.30;;
29812;SDS011;16707;48.106;11.548;2023-04-03T07:39:59;5.25;;;3.35;;
29812;SDS011;16707;48.106;11.548;2023-04-03T07:42:28;5.68;;;3.05;;
29812;SDS011;16707;48.106;11.548;2023-04-03T07:44:57;5.45;;;3.28;;
29812;SDS011;16707;48.106;11.548;2023-04-03T07:47:25;4.40;;;2.83;;
29812;SDS011;16707;48.106;11.548;2023-04-03T07:49:52;4.40;;;3.22;;
29812;SDS011;16707;48.106;11.548;2023-04-03T07:52:19;5.90;;;3.25;;
29812;SDS011;16707;48.106;11.548;2023-04-03T07:54:45;4.47;;;3.30;;
29812;SDS011;16707;48.106;11.548;2023-04-03T07:57:14;5.70;;;3.75;;
29812;SDS011;16707;48.106;11.548;2023-04-03T07:59:44;4.78;;;3.28;;
29812;SDS011;16707;48.106;11.548;2023-04-03T08:02:11;6.35;;;3.58;;
29812;SDS011;16707;48.106;11.548;2023-04-03T08:04:38;6.72;;;4.43;;
29812;SDS011;16707;48.106;11.548;2023-04-03T08:07:05;4.53;;;3.60;;
29812;SDS011;16707;48.106;11.548;2023-04-03T08:09:32;6.53;;;4.32;;
29812;SDS011;16707;48.106;11.548;2023-04-03T08:11:59;5.82;;;4.50;;
29812;SDS011;16707;48.106;11.548;2023-04-03T08:14:29;9.57;;;4.88;;
29812;SDS011;16707;48.106;11.548;2023-04-03T08:16:56;6.50;;;4.57;;
29812;SDS011;16707;48.106;11.548;2023-04-03T08:19:23;6.72;;;4.47;;
29812;SDS011;16707;48.106;11.548;2023-04-03T08:21:54;6.18;;;4.45;;
29812;SDS011;16707;48.106;11.548;2023-04-03T08:24:25;6.50;;;4.60;;
29812;SDS011;16707;48.106;11.548;2023-04-03T08:26:55;8.55;;;4.53;;
29812;SDS011;16707;48.106;11.548;2023-04-03T08:29:22;7.68;;;4.85;;
29812;SDS011;16707;48.106;11.548;2023-04-03T08:31:50;7.68;;;4.63;;
29812;SDS011;16707;48.106;11.548;2023-04-03T08:34:18;5.35;;;4.43;;
29812;SDS011;16707;48.106;11.548;2023-04-03T08:36:46;4.40;;;4.00;;
29812;SDS011;16707;48.106;11.548;2023-04-03T08:39:13;6.13;;;4.55;;
29812;SDS011;16707;48.106;11.548;2023-04-03T08:41:43;6.22;;;4.28;;
29812;SDS011;16707;48.106;11.548;2023-04-03T08:44:17;6.07;;;4.80;;
29812;SDS011;16707;48.106;11.548;2023-04-03T08:46:58;5.82;;;4.70;;
29812;SDS011;16707;48.106;11.548;2023-04-03T08:49:37;5.93;;;4.10;;
29812;SDS011;16707;48.106;11.548;2023-04-03T08:52:12;8.50;;;4.00;;
29812;SDS011;16707;48.106;11.548;2023-04-03T08:54:48;8.32;;;4.28;;
29812;SDS011;16707;48.106;11.548;2023-04-03T08:57:22;4.85;;;3.80;;
29812;SDS011;16707;48.106;11.548;2023-04-03T08:59:58;8.13;;;4.05;;
29812;SDS011;16707;48.106;11.548;2023-04-03T09:02:30;5.75;;;3.83;;
29812;SDS011;16707;48.106;11.548;2023-04-03T09:05:01;5.95;;;4.45;;
29812;SDS011;16707;48.106;11.548;2023-04-03T09:07:39;4.90;;;4.13;;
29812;SDS011;16707;48.106;11.548;2023-04-03T09:10:11;5.93;;;4.53;;
29812;SDS011;16707;48.106;11.548;2023-04-03T09:12:41;8.23;;;4.88;;
29812;SDS011;16707;48.106;11.548;2023-04-03T09:15:20;6.60;;;4.57;;
29812;SDS011;16707;48.106;11.548;2023-04-03T09:17:53;6.43;;;4.90;;
29812;SDS011;16707;48.106;11.548;2023-04-03T09:20:29;6.72;;;3.88;;
29812;SDS011;16707;48.106;11.548;2023-04-03T09:23:11;5.65;;;4.03;;
29812;SDS011;16707;48.106;11.548;2023-04-03T09:25:43;4.25;;;3.50;;
29812;SDS011;16707;48.106;11.548;2023-04-03T09:28:11;5.10;;;3.92;;
29812;SDS011;16707;48.106;11.548;2023-04-03T09:30:41;4.80;;;3.65;;
29812;SDS011;16707;48.106;11.548;2023-04-03T09:33:10;4.35;;;3.95;;
29812;SDS011;16707;48.106;11.548;2023-04-03T09:35:38;5.40;;;4.07;;
29812;SDS011;16707;48.106;11.548;2023-04-03T09:38:17;6.97;;;4.07;;
29812;SDS011;16707;48.106;11.548;2023-04-03T09:40:46;4.75;;;4.00;;
29812;SDS011;16707;48.106;11.548;2023-04-03T09:43:20;5.70;;;4.50;;
29812;SDS011;16707;48.106;11.548;2023-04-03T09:45:53;7.47;;;4.93;;
29812;SDS011;16707;48.106;11.548;2023-04-03T09:48:26;5.68;;;4.13;;
29812;SDS011;16707;48.106;11.548;2023-04-03T09:50:54;3.90;;;3.35;;
29812;SDS011;16707;48.106;11.548;2023-04-03T09:53:26;5.38;;;3.83;;
29812;SDS011;16707;48.106;11.548;2023-04-03T09:56:00;5.07;;;4.32;;
29812;SDS011;16707;48.106;11.548;2023-04-03T09:58:44;4.63;;;3.97;;
29812;SDS011;16707;48.106;11.548;2023-04-03T10:01:20;3.95;;;3.40;;
29812;SDS011;16707;48.106;11.548;2023-04-03T10:04:03;5.40;;;3.60;;
29812;SDS011;16707;48.106;11.548;2023-04-03T10:06:34;4.37;;;3.97;;
29812;SDS011;16707;48.106;11.548;2023-04-03T10:09:03;4.72;;;3.33;;
29812;SDS011;16707;48.106;11.548;2023-04-03T10:11:32;5.57;;;3.88;;
29812;SDS011;16707;48.106;11.548;2023-04-03T10:14:02;4.38;;;3.40;;
29812;SDS011;16707;48.106;11.548;2023-04-03T10:16:32;5.53;;;3.80;;
29812;SDS011;16707;48.106;11.548;2023-04-03T10:19:20;4.47;;;3.78;;
29812;SDS011;16707;48.106;11.548;2023-04-03T10:21:59;5.25;;;3.58;;
29812;SDS011;16707;48.106;11.548;2023-04-03T10:24:31;5.70;;;3.45;;
29812;SDS011;16707;48.106;11.548;2023-04-03T10:27:05;4.45;;;3.95;;
29812;SDS011;16707;48.106;11.548;2023-04-03T10:29:40;4.78;;;4.07;;
29812;SDS011;16707;48.106;11.548;2023-04-03T10:32:18;5.13;;;3.50;;
29812;SDS011;16707;48.106;11.548;2023-04-03T10:34:57;5.10;;;4.13;;
29812;SDS011;16707;48.106;11.548;2023-04-03T10:37:35;6.57;;;4.63;;
29812;SDS011;16707;48.106;11.548;2023-04-03T10:40:15;6.70;;;4.80;;
29812;SDS011;16707;48.106;11.548;2023-04-03T10:42:53;5.85;;;4.30;;
29812;SDS011;16707;48.106;11.548;2023-04-03T10:45:29;5.95;;;3.92;;
29812;SDS011;16707;48.106;11.548;2023-04-03T10:48:04;6.70;;;4.55;;
29812;SDS011;16707;48.106;11.548;2023-04-03T10:50:39;4.88;;;4.28;;
29812;SDS011;16707;48.106;11.548;2023-04-03T10:53:16;5.10;;;3.85;;
29812;SDS011;16707;48.106;11.548;2023-04-03T10:55:52;3.42;;;3.10;;
29812;SDS011;16707;48.106;11.548;2023-04-03T10:58:25;4.90;;;3.40;;
29812;SDS011;16707;48.106;11.548;2023-04-03T11:00:57;4.75;;;4.00;;
29812;SDS011;16707;48.106;11.548;2023-04-03T11:03:33;5.32;;;4.20;;
29812;SDS011;16707;48.106;11.548;2023-04-03T11:06:05;6.45;;;4.63;;
29812;SDS011;16707;48.106;11.548;2023-04-03T11:08:35;5.82;;;4.32;;
29812;SDS011;16707;48.106;11.548;2023-04-03T11:11:05;6.13;;;3.50;;
29812;SDS011;16707;48.106;11.548;2023-04-03T11:13:41;4.15;;;3.72;;
29812;SDS011;16707;48.106;11.548;2023-04-03T11:16:12;8.68;;;3.45;;
29812;SDS011;16707;48.106;11.548;2023-04-03T11:18:46;4.07;;;3.63;;
29812;SDS011;16707;48.106;11.548;2023-04-03T11:21:21;6.05;;;3.63;;
29812;SDS011;16707;48.106;11.548;2023-04-03T11:23:55;7.53;;;3.45;;
29812;SDS011;16707;48.106;11.548;2023-04-03T11:26:24;4.25;;;3.03;;
29812;SDS011;16707;48.106;11.548;2023-04-03T11:28:58;5.10;;;3.20;;
29812;SDS011;16707;48.106;11.548;2023-04-03T11:31:33;4.22;;;3.28;;
29812;SDS011;16707;48.106;11.548;2023-04-03T11:34:13;4.90;;;3.10;;
29812;SDS011;16707;48.106;11.548;2023-04-03T11:36:55;5.68;;;3.10;;
29812;SDS011;16707;48.106;11.548;2023-04-03T11:39:26;4.82;;;3.25;;
29812;SDS011;16707;48.106;11.548;2023-04-03T11:44:42;3.92;;;2.65;;
29812;SDS011;16707;48.106;11.548;2023-04-03T11:47:10;3.60;;;2.50;;
29812;SDS011;16707;48.106;11.548;2023-04-03T11:49:54;2.67;;;2.40;;
29812;SDS011;16707;48.106;11.548;2023-04-03T11:55:41;4.20;;;2.63;;
29812;SDS011;16707;48.106;11.548;2023-04-03T11:58:19;3.75;;;2.58;;
29812;SDS011;16707;48.106;11.548;2023-04-03T12:00:54;3.67;;;2.47;;
29812;SDS011;16707;48.106;11.548;2023-04-03T12:03:34;3.22;;;2.28;;
29812;SDS011;16707;48.106;11.548;2023-04-03T12:06:50;4.78;;;1.98;;
29812;SDS011;16707;48.106;11.548;2023-04-03T12:09:22;3.17;;;2.35;;
29812;SDS011;16707;48.106;11.548;2023-04-03T12:11:53;3.67;;;2.38;;
29812;SDS011;16707;48.106;11.548;2023-04-03T12:14:23;2.58;;;1.95;;
29812;SDS011;16707;48.106;11.548;2023-04-03T12:16:52;1.90;;;1.80;;
29812;SDS011;16707;48.106;11.548;2023-04-03T12:19:32;3.92;;;1.92;;
29812;SDS011;16707;48.106;11.548;2023-04-03T12:22:06;3.25;;;2.10;;
29812;SDS011;16707;48.106;11.548;2023-04-03T12:24:44;5.63;;;2.10;;
29812;SDS011;16707;48.106;11.548;2023-04-03T12:27:23;3.78;;;1.98;;
29812;SDS011;16707;48.106;11.548;2023-04-03T12:29:55;3.22;;;2.17;;
29812;SDS011;16707;48.106;11.548;2023-04-03T12:35:04;2.33;;;2.05;;
29812;SDS011;16707;48.106;11.548;2023-04-03T12:37:57;3.40;;;2.20;;
29812;SDS011;16707;48.106;11.548;2023-04-03T12:40:47;3.15;;;1.80;;
29812;SDS011;16707;48.106;11.548;2023-04-03T12:43:26;3.40;;;2.40;;
29812;SDS011;16707;48.106;11.548;2023-04-03T12:46:03;1.83;;;1.70;;
29812;SDS011;16707;48.106;11.548;2023-04-03T12:48:37;3.58;;;1.70;;
29812;SDS011;16707;48.106;11.548;2023-04-03T12:51:13;3.78;;;1.67;;
29812;SDS011;16707;48.106;11.548;2023-04-03T12:53:42;2.20;;;1.42;;
29812;SDS011;16707;48.106;11.548;2023-04-03T12:56:24;2.92;;;1.70;;
29812;SDS011;16707;48.106;11.548;2023-04-03T12:58:53;3.45;;;2.20;;
29812;SDS011;16707;48.106;11.548;2023-04-03T13:01:42;3.50;;;2.10;;
29812;SDS011;16707;48.106;11.548;2023-04-03T13:04:20;3.63;;;1.83;;
29812;SDS011;16707;48.106;11.548;2023-04-03T13:06:47;2.58;;;1.90;;
29812;SDS011;16707;48.106;11.548;2023-04-03T13:09:19;2.00;;;1.60;;
29812;SDS011;16707;48.106;11.548;2023-04-03T13:11:54;2.83;;;1.73;;
29812;SDS011;16707;48.106;11.548;2023-04-03T13:14:26;3.33;;;2.00;;
29812;SDS011;16707;48.106;11.548;2023-04-03T13:16:54;3.17;;;2.53;;
29812;SDS011;16707;48.106;11.548;2023-04-03T13:19:22;3.95;;;2.17;;
29812;SDS011;16707;48.106;11.548;2023-04-03T13:21:51;2.88;;;1.90;;
29812;SDS011;16707;48.106;11.548;2023-04-03T13:24:27;3.75;;;1.80;;
29812;SDS011;16707;48.106;11.548;2023-04-03T13:26:57;2.08;;;1.88;;
29812;SDS011;16707;48.106;11.548;2023-04-03T13:29:26;2.72;;;1.80;;
29812;SDS011;16707;48.106;11.548;2023-04-03T13:31:55;1.83;;;1.70;;
29812;SDS011;16707;48.106;11.548;2023-04-03T13:34:28;2.05;;;1.60;;
29812;SDS011;16707;48.106;11.548;2023-04-03T13:37:02;3.42;;;1.60;;
29812;SDS011;16707;48.106;11.548;2023-04-03T13:39:32;2.53;;;1.55;;
29812;SDS011;16707;48.106;11.548;2023-04-03T13:42:00;2.78;;;1.90;;
29812;SDS011;16707;48.106;11.548;2023-04-03T13:44:40;3.35;;;1.85;;
29812;SDS011;16707;48.106;11.548;2023-04-03T13:47:17;3.35;;;1.90;;
29812;SDS011;16707;48.106;11.548;2023-04-03T13:49:57;1.83;;;1.40;;
29812;SDS011;16707;48.106;11.548;2023-04-03T13:52:27;3.63;;;1.98;;
29812;SDS011;16707;48.106;11.548;2023-04-03T13:55:03;3.95;;;1.73;;
29812;SDS011;16707;48.106;11.548;2023-04-03T13:57:48;3.78;;;1.50;;
29812;SDS011;16707;48.106;11.548;2023-04-03T14:02:59;2.88;;;1.60;;
29812;SDS011;16707;48.106;11.548;2023-04-03T14:05:29;2.90;;;1.92;;
29812;SDS011;16707;48.106;11.548;2023-04-03T14:07:56;2.55;;;1.90;;
29812;SDS011;16707;48.106;11.548;2023-04-03T14:10:25;2.50;;;1.85;;
29812;SDS011;16707;48.106;11.548;2023-04-03T14:12:52;2.42;;;1.55;;
29812;SDS011;16707;48.106;11.548;2023-04-03T14:15:20;2.10;;;1.60;;
29812;SDS011;16707;48.106;11.548;2023-04-03T14:17:53;3.08;;;1.70;;
29812;SDS011;16707;48.106;11.548;2023-04-03T14:20:24;2.65;;;1.80;;
29812;SDS011;16707;48.106;11.548;2023-04-03T14:22:52;1.83;;;1.60;;
29812;SDS011;16707;48.106;11.548;2023-04-03T14:25:20;3.35;;;2.22;;
29812;SDS011;16707;48.106;11.548;2023-04-03T14:27:50;1.70;;;1.35;;
29812;SDS011;16707;48.106;11.548;2023-04-03T14:30:19;3.38;;;1.63;;
29812;SDS011;16707;48.106;11.548;2023-04-03T14:32:48;3.90;;;1.77;;
29812;SDS011;16707;48.106;11.548;2023-04-03T14:35:16;3.97;;;1.80;;
29812;SDS011;16707;48.106;11.548;2023-04-03T14:37:44;2.08;;;1.38;;
29812;SDS011;16707;48.106;11.548;2023-04-03T14:40:13;2.53;;;1.90;;
29812;SDS011;16707;48.106;11.548;2023-04-03T14:42:41;2.10;;;1.48;;
29812;SDS011;16707;48.106;11.548;2023-04-03T14:45:10;1.80;;;1.50;;
29812;SDS011;16707;48.106;11.548;2023-04-03T14:47:39;2.42;;;1.58;;
29812;SDS011;16707;48.106;11.548;2023-04-03T14:50:11;2.00;;;1.38;;
29812;SDS011;16707;48.106;11.548;2023-04-03T14:52:41;2.15;;;1.15;;
29812;SDS011;16707;48.106;11.548;2023-04-03T14:55:13;1.73;;;1.50;;
29812;SDS011;16707;48.106;11.548;2023-04-03T14:57:42;2.83;;;1.40;;
29812;SDS011;16707;48.106;11.548;2023-04-03T15:00:14;2.33;;;1.40;;
29812;SDS011;16707;48.106;11.548;2023-04-03T15:02:46;2.17;;;1.45;;
29812;SDS011;16707;48.106;11.548;2023-04-03T15:05:14;2.28;;;1.20;;
29812;SDS011;16707;48.106;11.548;2023-04-03T15:07:42;1.63;;;1.40;;
29812;SDS011;16707;48.106;11.548;2023-04-03T15:10:16;4.07;;;1.70;;